sensor_id;sensor_type;location;lat;lon;timestamp;P1;durP1;ratioP1;P2;durP2;ratioP2
27225;SDS011;14732;51.074;3.788;2024-03-06T00:02:25;16.67;;;12.52;;
27225;SDS011;14732;51.074;3.788;2024-03-06T00:04:51;18.38;;;12.13;;
27225;SDS011;14732;51.074;3.788;2024-03-06T00:07:16;19.23;;;11.82;;
27225;SDS011;14732;51.074;3.788;2024-03-06T00:09:42;16.50;;;11.60;;
27225;SDS011;14732;51.074;3.788;2024-03-06T00:12:08;17.52;;;12.13;;
27225;SDS011;14732;51.074;3.788;2024-03-06T00:14:33;15.63;;;11.05;;
27225;SDS011;14732;51.074;3.788;2024-03-06T00:17:01;15.40;;;10.90;;
27225;SDS011;14732;51.074;3.788;2024-03-06T00:19:29;17.67;;;10.93;;
27225;SDS011;14732;51.074;3.788;2024-03-06T00:21:55;16.33;;;10.82;;
27225;SDS011;14732;51.074;3.788;2024-03-06T00:24:21;18.75;;;11.45;;
27225;SDS011;14732;51.074;3.788;2024-03-06T00:26:48;16.13;;;10.93;;
27225;SDS011;14732;51.074;3.788;2024-03-06T00:29:14;17.15;;;11.50;;
27225;SDS011;14732;51.074;3.788;2024-03-06T00:31:43;15.48;;;11.25;;
27225;SDS011;14732;51.074;3.788;2024-03-06T00:34:13;15.57;;;10.85;;
27225;SDS011;14732;51.074;3.788;2024-03-06T00:36:45;16.92;;;11.07;;
27225;SDS011;14732;51.074;3.788;2024-03-06T00:39:10;18.20;;;11.02;;
27225;SDS011;14732;51.074;3.788;2024-03-06T00:41:38;18.73;;;10.90;;
27225;SDS011;14732;51.074;3.788;2024-03-06T00:44:04;16.60;;;10.88;;
27225;SDS011;14732;51.074;3.788;2024-03-06T00:46:30;15.48;;;10.43;;
27225;SDS011;14732;51.074;3.788;2024-03-06T00:48:56;16.70;;;10.88;;
27225;SDS011;14732;51.074;3.788;2024-03-06T00:51:22;14.57;;;10.07;;
27225;SDS011;14732;51.074;3.788;2024-03-06T00:53:48;17.67;;;10.45;;
27225;SDS011;14732;51.074;3.788;2024-03-06T00:56:13;15.77;;;10.65;;
27225;SDS011;14732;51.074;3.788;2024-03-06T00:58:39;15.93;;;10.93;;
27225;SDS011;14732;51.074;3.788;2024-03-06T01:01:05;14.18;;;9.68;;
27225;SDS011;14732;51.074;3.788;2024-03-06T01:03:30;15.98;;;10.63;;
27225;SDS011;14732;51.074;3.788;2024-03-06T01:05:56;16.58;;;9.95;;
27225;SDS011;14732;51.074;3.788;2024-03-06T01:08:22;14.25;;;10.18;;
27225;SDS011;14732;51.074;3.788;2024-03-06T01:10:50;14.60;;;10.02;;
27225;SDS011;14732;51.074;3.788;2024-03-06T01:13:21;15.02;;;10.75;;
27225;SDS011;14732;51.074;3.788;2024-03-06T01:15:47;15.68;;;10.60;;
27225;SDS011;14732;51.074;3.788;2024-03-06T01:18:12;15.98;;;9.77;;
27225;SDS011;14732;51.074;3.788;2024-03-06T01:20:38;15.77;;;9.88;;
27225;SDS011;14732;51.074;3.788;2024-03-06T01:23:04;14.90;;;10.20;;
27225;SDS011;14732;51.074;3.788;2024-03-06T01:25:30;15.32;;;9.60;;
27225;SDS011;14732;51.074;3.788;2024-03-06T01:27:56;15.00;;;10.20;;
27225;SDS011;14732;51.074;3.788;2024-03-06T01:30:21;15.07;;;9.57;;
27225;SDS011;14732;51.074;3.788;2024-03-06T01:32:47;14.82;;;10.02;;
27225;SDS011;14732;51.074;3.788;2024-03-06T01:35:12;12.90;;;9.57;;
27225;SDS011;14732;51.074;3.788;2024-03-06T01:37:38;14.05;;;10.30;;
27225;SDS011;14732;51.074;3.788;2024-03-06T01:40:04;14.25;;;9.50;;
27225;SDS011;14732;51.074;3.788;2024-03-06T01:42:30;15.20;;;9.50;;
27225;SDS011;14732;51.074;3.788;2024-03-06T01:44:56;13.82;;;8.68;;
27225;SDS011;14732;51.074;3.788;2024-03-06T01:47:22;12.77;;;8.93;;
27225;SDS011;14732;51.074;3.788;2024-03-06T01:49:47;13.70;;;8.32;;
27225;SDS011;14732;51.074;3.788;2024-03-06T01:52:14;10.93;;;8.20;;
27225;SDS011;14732;51.074;3.788;2024-03-06T01:54:41;14.88;;;8.35;;
27225;SDS011;14732;51.074;3.788;2024-03-06T01:57:07;12.52;;;9.07;;
27225;SDS011;14732;51.074;3.788;2024-03-06T01:59:35;12.52;;;9.00;;
27225;SDS011;14732;51.074;3.788;2024-03-06T02:02:02;13.80;;;9.80;;
27225;SDS011;14732;51.074;3.788;2024-03-06T02:04:28;13.25;;;9.57;;
27225;SDS011;14732;51.074;3.788;2024-03-06T02:06:54;13.05;;;8.52;;
27225;SDS011;14732;51.074;3.788;2024-03-06T02:09:20;13.95;;;9.27;;
27225;SDS011;14732;51.074;3.788;2024-03-06T02:11:46;12.82;;;8.82;;
27225;SDS011;14732;51.074;3.788;2024-03-06T02:14:11;11.93;;;8.45;;
27225;SDS011;14732;51.074;3.788;2024-03-06T02:16:37;12.60;;;8.38;;
27225;SDS011;14732;51.074;3.788;2024-03-06T02:19:06;12.30;;;8.68;;
27225;SDS011;14732;51.074;3.788;2024-03-06T02:21:33;9.88;;;8.15;;
27225;SDS011;14732;51.074;3.788;2024-03-06T02:23:59;13.23;;;8.40;;
27225;SDS011;14732;51.074;3.788;2024-03-06T02:26:25;11.93;;;7.63;;
27225;SDS011;14732;51.074;3.788;2024-03-06T02:28:51;11.02;;;7.47;;
27225;SDS011;14732;51.074;3.788;2024-03-06T02:31:19;11.38;;;6.95;;
27225;SDS011;14732;51.074;3.788;2024-03-06T02:33:46;11.65;;;7.70;;
27225;SDS011;14732;51.074;3.788;2024-03-06T02:36:16;14.32;;;7.78;;
27225;SDS011;14732;51.074;3.788;2024-03-06T02:38:42;11.48;;;8.15;;
27225;SDS011;14732;51.074;3.788;2024-03-06T02:41:09;10.45;;;7.82;;
27225;SDS011;14732;51.074;3.788;2024-03-06T02:43:35;8.70;;;6.45;;
27225;SDS011;14732;51.074;3.788;2024-03-06T02:46:01;10.70;;;7.47;;
27225;SDS011;14732;51.074;3.788;2024-03-06T02:48:28;12.65;;;8.18;;
27225;SDS011;14732;51.074;3.788;2024-03-06T02:50:54;12.82;;;7.38;;
27225;SDS011;14732;51.074;3.788;2024-03-06T02:53:20;9.73;;;7.47;;
27225;SDS011;14732;51.074;3.788;2024-03-06T02:55:47;11.60;;;7.85;;
27225;SDS011;14732;51.074;3.788;2024-03-06T02:58:12;8.73;;;6.32;;
27225;SDS011;14732;51.074;3.788;2024-03-06T03:00:41;10.57;;;7.85;;
27225;SDS011;14732;51.074;3.788;2024-03-06T03:03:07;12.45;;;8.52;;
27225;SDS011;14732;51.074;3.788;2024-03-06T03:05:33;12.07;;;7.90;;
27225;SDS011;14732;51.074;3.788;2024-03-06T03:07:59;12.70;;;8.52;;
27225;SDS011;14732;51.074;3.788;2024-03-06T03:10:25;13.40;;;7.97;;
27225;SDS011;14732;51.074;3.788;2024-03-06T03:12:51;11.05;;;8.20;;
27225;SDS011;14732;51.074;3.788;2024-03-06T03:15:17;8.35;;;7.13;;
27225;SDS011;14732;51.074;3.788;2024-03-06T03:17:42;12.30;;;7.30;;
27225;SDS011;14732;51.074;3.788;2024-03-06T03:20:08;12.07;;;7.55;;
27225;SDS011;14732;51.074;3.788;2024-03-06T03:22:37;11.98;;;8.15;;
27225;SDS011;14732;51.074;3.788;2024-03-06T03:25:11;11.13;;;8.40;;
27225;SDS011;14732;51.074;3.788;2024-03-06T03:27:38;13.25;;;8.10;;
27225;SDS011;14732;51.074;3.788;2024-03-06T03:30:09;14.48;;;8.70;;
27225;SDS011;14732;51.074;3.788;2024-03-06T03:32:36;11.35;;;8.68;;
27225;SDS011;14732;51.074;3.788;2024-03-06T03:35:03;16.85;;;9.82;;
27225;SDS011;14732;51.074;3.788;2024-03-06T03:37:30;14.90;;;9.80;;
27225;SDS011;14732;51.074;3.788;2024-03-06T03:39:56;12.38;;;8.82;;
27225;SDS011;14732;51.074;3.788;2024-03-06T03:42:22;15.15;;;8.90;;
27225;SDS011;14732;51.074;3.788;2024-03-06T03:44:47;14.63;;;9.00;;
27225;SDS011;14732;51.074;3.788;2024-03-06T03:47:13;16.10;;;10.18;;
27225;SDS011;14732;51.074;3.788;2024-03-06T03:49:38;15.98;;;10.55;;
27225;SDS011;14732;51.074;3.788;2024-03-06T03:52:04;16.42;;;10.27;;
27225;SDS011;14732;51.074;3.788;2024-03-06T03:54:30;15.80;;;8.85;;
27225;SDS011;14732;51.074;3.788;2024-03-06T03:56:56;15.02;;;8.93;;
27225;SDS011;14732;51.074;3.788;2024-03-06T03:59:24;14.30;;;9.82;;
27225;SDS011;14732;51.074;3.788;2024-03-06T04:01:50;16.90;;;10.73;;
27225;SDS011;14732;51.074;3.788;2024-03-06T04:04:15;17.02;;;10.25;;
27225;SDS011;14732;51.074;3.788;2024-03-06T04:06:41;17.17;;;9.98;;
27225;SDS011;14732;51.074;3.788;2024-03-06T04:09:06;15.30;;;9.80;;
27225;SDS011;14732;51.074;3.788;2024-03-06T04:11:35;16.92;;;9.80;;
27225;SDS011;14732;51.074;3.788;2024-03-06T04:14:02;12.43;;;9.25;;
27225;SDS011;14732;51.074;3.788;2024-03-06T04:16:31;14.10;;;10.13;;
27225;SDS011;14732;51.074;3.788;2024-03-06T04:18:57;17.20;;;10.73;;
27225;SDS011;14732;51.074;3.788;2024-03-06T04:21:23;13.52;;;9.40;;
27225;SDS011;14732;51.074;3.788;2024-03-06T04:23:49;13.88;;;8.80;;
27225;SDS011;14732;51.074;3.788;2024-03-06T04:26:14;12.40;;;8.68;;
27225;SDS011;14732;51.074;3.788;2024-03-06T04:28:40;11.38;;;7.78;;
27225;SDS011;14732;51.074;3.788;2024-03-06T04:31:06;11.60;;;8.27;;
27225;SDS011;14732;51.074;3.788;2024-03-06T04:33:33;14.15;;;8.15;;
27225;SDS011;14732;51.074;3.788;2024-03-06T04:36:00;12.45;;;8.85;;
27225;SDS011;14732;51.074;3.788;2024-03-06T04:38:27;11.47;;;8.37;;
27225;SDS011;14732;51.074;3.788;2024-03-06T04:40:54;14.80;;;9.20;;
27225;SDS011;14732;51.074;3.788;2024-03-06T04:43:19;17.38;;;9.65;;
27225;SDS011;14732;51.074;3.788;2024-03-06T04:45:45;13.45;;;9.00;;
27225;SDS011;14732;51.074;3.788;2024-03-06T04:48:11;13.10;;;9.30;;
27225;SDS011;14732;51.074;3.788;2024-03-06T04:50:37;15.85;;;9.15;;
27225;SDS011;14732;51.074;3.788;2024-03-06T04:53:02;12.98;;;8.93;;
27225;SDS011;14732;51.074;3.788;2024-03-06T04:55:28;14.38;;;8.55;;
27225;SDS011;14732;51.074;3.788;2024-03-06T04:57:55;13.27;;;9.15;;
27225;SDS011;14732;51.074;3.788;2024-03-06T05:00:21;12.75;;;8.77;;
27225;SDS011;14732;51.074;3.788;2024-03-06T05:02:47;12.40;;;8.85;;
27225;SDS011;14732;51.074;3.788;2024-03-06T05:05:14;14.77;;;8.85;;
27225;SDS011;14732;51.074;3.788;2024-03-06T05:07:40;12.30;;;8.43;;
27225;SDS011;14732;51.074;3.788;2024-03-06T05:10:06;17.08;;;9.63;;
27225;SDS011;14732;51.074;3.788;2024-03-06T05:12:32;15.57;;;9.50;;
27225;SDS011;14732;51.074;3.788;2024-03-06T05:14:59;13.05;;;8.85;;
27225;SDS011;14732;51.074;3.788;2024-03-06T05:17:25;12.40;;;8.68;;
27225;SDS011;14732;51.074;3.788;2024-03-06T05:19:50;13.00;;;8.60;;
27225;SDS011;14732;51.074;3.788;2024-03-06T05:22:16;11.32;;;8.35;;
27225;SDS011;14732;51.074;3.788;2024-03-06T05:24:42;16.88;;;9.93;;
27225;SDS011;14732;51.074;3.788;2024-03-06T05:27:08;18.00;;;9.93;;
27225;SDS011;14732;51.074;3.788;2024-03-06T05:29:35;16.95;;;9.85;;
27225;SDS011;14732;51.074;3.788;2024-03-06T05:32:01;17.15;;;10.88;;
27225;SDS011;14732;51.074;3.788;2024-03-06T05:34:28;17.50;;;10.40;;
27225;SDS011;14732;51.074;3.788;2024-03-06T05:36:54;17.73;;;10.70;;
27225;SDS011;14732;51.074;3.788;2024-03-06T05:39:20;15.35;;;10.07;;
27225;SDS011;14732;51.074;3.788;2024-03-06T05:41:46;14.60;;;9.63;;
27225;SDS011;14732;51.074;3.788;2024-03-06T05:44:11;13.30;;;8.48;;
27225;SDS011;14732;51.074;3.788;2024-03-06T05:46:37;15.32;;;9.38;;
27225;SDS011;14732;51.074;3.788;2024-03-06T05:49:03;18.27;;;9.32;;
27225;SDS011;14732;51.074;3.788;2024-03-06T05:51:29;15.43;;;9.07;;
27225;SDS011;14732;51.074;3.788;2024-03-06T05:53:55;16.30;;;10.20;;
27225;SDS011;14732;51.074;3.788;2024-03-06T05:56:21;16.27;;;9.85;;
27225;SDS011;14732;51.074;3.788;2024-03-06T05:58:47;17.02;;;9.88;;
27225;SDS011;14732;51.074;3.788;2024-03-06T06:01:14;16.15;;;9.73;;
27225;SDS011;14732;51.074;3.788;2024-03-06T06:03:43;19.30;;;10.48;;
27225;SDS011;14732;51.074;3.788;2024-03-06T06:06:09;16.95;;;9.40;;
27225;SDS011;14732;51.074;3.788;2024-03-06T06:08:35;17.70;;;9.60;;
27225;SDS011;14732;51.074;3.788;2024-03-06T06:11:01;15.98;;;9.43;;
27225;SDS011;14732;51.074;3.788;2024-03-06T06:13:30;14.75;;;9.68;;
27225;SDS011;14732;51.074;3.788;2024-03-06T06:15:59;17.92;;;10.20;;
27225;SDS011;14732;51.074;3.788;2024-03-06T06:18:27;14.90;;;10.18;;
27225;SDS011;14732;51.074;3.788;2024-03-06T06:20:53;14.20;;;9.45;;
27225;SDS011;14732;51.074;3.788;2024-03-06T06:23:19;18.25;;;10.00;;
27225;SDS011;14732;51.074;3.788;2024-03-06T06:25:44;17.10;;;10.07;;
27225;SDS011;14732;51.074;3.788;2024-03-06T06:28:10;16.23;;;9.70;;
27225;SDS011;14732;51.074;3.788;2024-03-06T06:30:36;15.63;;;9.25;;
27225;SDS011;14732;51.074;3.788;2024-03-06T06:33:03;18.98;;;10.82;;
27225;SDS011;14732;51.074;3.788;2024-03-06T06:35:29;16.73;;;10.05;;
27225;SDS011;14732;51.074;3.788;2024-03-06T06:37:55;22.67;;;11.45;;
27225;SDS011;14732;51.074;3.788;2024-03-06T06:40:21;36.38;;;13.85;;
27225;SDS011;14732;51.074;3.788;2024-03-06T06:42:47;28.38;;;13.73;;
27225;SDS011;14732;51.074;3.788;2024-03-06T06:47:42;26.00;;;13.40;;
27225;SDS011;14732;51.074;3.788;2024-03-06T06:50:08;24.17;;;13.13;;
27225;SDS011;14732;51.074;3.788;2024-03-06T06:52:35;26.77;;;12.77;;
27225;SDS011;14732;51.074;3.788;2024-03-06T06:55:01;21.42;;;12.95;;
27225;SDS011;14732;51.074;3.788;2024-03-06T06:57:27;21.60;;;13.02;;
27225;SDS011;14732;51.074;3.788;2024-03-06T06:59:53;22.33;;;12.35;;
27225;SDS011;14732;51.074;3.788;2024-03-06T07:02:18;18.33;;;11.32;;
27225;SDS011;14732;51.074;3.788;2024-03-06T07:04:44;22.27;;;12.32;;
27225;SDS011;14732;51.074;3.788;2024-03-06T07:07:10;17.05;;;10.95;;
27225;SDS011;14732;51.074;3.788;2024-03-06T07:09:36;20.20;;;11.65;;
27225;SDS011;14732;51.074;3.788;2024-03-06T07:12:01;22.80;;;12.07;;
27225;SDS011;14732;51.074;3.788;2024-03-06T07:14:28;18.58;;;11.50;;
27225;SDS011;14732;51.074;3.788;2024-03-06T07:16:54;18.38;;;11.73;;
27225;SDS011;14732;51.074;3.788;2024-03-06T07:19:19;16.88;;;11.23;;
27225;SDS011;14732;51.074;3.788;2024-03-06T07:21:45;16.80;;;11.05;;
27225;SDS011;14732;51.074;3.788;2024-03-06T07:24:11;17.98;;;12.57;;
27225;SDS011;14732;51.074;3.788;2024-03-06T07:26:36;17.60;;;11.55;;
27225;SDS011;14732;51.074;3.788;2024-03-06T07:29:02;17.98;;;10.25;;
27225;SDS011;14732;51.074;3.788;2024-03-06T07:31:28;17.23;;;10.95;;
27225;SDS011;14732;51.074;3.788;2024-03-06T07:33:54;14.63;;;10.75;;
27225;SDS011;14732;51.074;3.788;2024-03-06T07:36:20;15.73;;;10.68;;
27225;SDS011;14732;51.074;3.788;2024-03-06T07:38:46;18.40;;;11.50;;
27225;SDS011;14732;51.074;3.788;2024-03-06T07:41:12;19.95;;;11.50;;
27225;SDS011;14732;51.074;3.788;2024-03-06T07:43:38;15.93;;;11.23;;
27225;SDS011;14732;51.074;3.788;2024-03-06T07:46:04;16.10;;;10.70;;
27225;SDS011;14732;51.074;3.788;2024-03-06T07:48:35;19.60;;;11.18;;
27225;SDS011;14732;51.074;3.788;2024-03-06T07:51:07;16.58;;;11.43;;
27225;SDS011;14732;51.074;3.788;2024-03-06T07:53:33;17.73;;;11.80;;
27225;SDS011;14732;51.074;3.788;2024-03-06T07:55:58;19.88;;;12.45;;
27225;SDS011;14732;51.074;3.788;2024-03-06T07:58:24;18.85;;;12.27;;
27225;SDS011;14732;51.074;3.788;2024-03-06T08:00:49;19.60;;;12.35;;
27225;SDS011;14732;51.074;3.788;2024-03-06T08:03:18;21.65;;;13.05;;
27225;SDS011;14732;51.074;3.788;2024-03-06T08:05:44;22.60;;;14.05;;
27225;SDS011;14732;51.074;3.788;2024-03-06T08:08:09;26.05;;;14.68;;
27225;SDS011;14732;51.074;3.788;2024-03-06T08:10:35;27.67;;;15.05;;
27225;SDS011;14732;51.074;3.788;2024-03-06T08:13:00;27.45;;;15.90;;
27225;SDS011;14732;51.074;3.788;2024-03-06T08:15:26;35.53;;;18.15;;
27225;SDS011;14732;51.074;3.788;2024-03-06T08:17:52;35.78;;;18.00;;
27225;SDS011;14732;51.074;3.788;2024-03-06T08:20:17;35.58;;;19.20;;
27225;SDS011;14732;51.074;3.788;2024-03-06T08:22:43;43.78;;;20.48;;
27225;SDS011;14732;51.074;3.788;2024-03-06T08:25:10;35.60;;;19.38;;
27225;SDS011;14732;51.074;3.788;2024-03-06T08:27:38;40.30;;;19.27;;
27225;SDS011;14732;51.074;3.788;2024-03-06T08:30:05;51.05;;;21.27;;
27225;SDS011;14732;51.074;3.788;2024-03-06T08:32:31;45.47;;;20.63;;
27225;SDS011;14732;51.074;3.788;2024-03-06T08:35:02;49.38;;;21.40;;
27225;SDS011;14732;51.074;3.788;2024-03-06T08:37:31;44.15;;;22.00;;
27225;SDS011;14732;51.074;3.788;2024-03-06T08:39:58;45.65;;;20.33;;
27225;SDS011;14732;51.074;3.788;2024-03-06T08:42:24;44.65;;;19.92;;
27225;SDS011;14732;51.074;3.788;2024-03-06T08:44:50;58.15;;;21.65;;
27225;SDS011;14732;51.074;3.788;2024-03-06T08:47:15;48.33;;;20.50;;
27225;SDS011;14732;51.074;3.788;2024-03-06T08:49:41;49.70;;;20.85;;
27225;SDS011;14732;51.074;3.788;2024-03-06T08:52:07;45.10;;;20.83;;
27225;SDS011;14732;51.074;3.788;2024-03-06T08:54:34;49.00;;;21.67;;
27225;SDS011;14732;51.074;3.788;2024-03-06T08:57:00;55.17;;;22.92;;
27225;SDS011;14732;51.074;3.788;2024-03-06T08:59:27;52.17;;;22.05;;
27225;SDS011;14732;51.074;3.788;2024-03-06T09:01:54;59.22;;;23.10;;
27225;SDS011;14732;51.074;3.788;2024-03-06T09:04:21;58.80;;;22.98;;
27225;SDS011;14732;51.074;3.788;2024-03-06T09:06:47;60.45;;;23.38;;
27225;SDS011;14732;51.074;3.788;2024-03-06T09:09:14;50.60;;;22.63;;
27225;SDS011;14732;51.074;3.788;2024-03-06T09:11:43;52.78;;;23.38;;
27225;SDS011;14732;51.074;3.788;2024-03-06T09:14:09;56.40;;;23.27;;
27225;SDS011;14732;51.074;3.788;2024-03-06T09:16:35;52.83;;;23.40;;
27225;SDS011;14732;51.074;3.788;2024-03-06T09:19:01;54.10;;;24.70;;
27225;SDS011;14732;51.074;3.788;2024-03-06T09:21:27;53.50;;;22.90;;
27225;SDS011;14732;51.074;3.788;2024-03-06T09:23:53;55.95;;;23.65;;
27225;SDS011;14732;51.074;3.788;2024-03-06T09:26:19;56.58;;;24.13;;
27225;SDS011;14732;51.074;3.788;2024-03-06T09:28:48;58.50;;;24.63;;
27225;SDS011;14732;51.074;3.788;2024-03-06T09:31:14;57.55;;;25.20;;
27225;SDS011;14732;51.074;3.788;2024-03-06T09:33:40;56.65;;;23.55;;
27225;SDS011;14732;51.074;3.788;2024-03-06T09:36:06;50.58;;;22.98;;
27225;SDS011;14732;51.074;3.788;2024-03-06T09:38:35;53.60;;;23.87;;
27225;SDS011;14732;51.074;3.788;2024-03-06T09:41:02;48.33;;;22.35;;
27225;SDS011;14732;51.074;3.788;2024-03-06T09:43:28;48.40;;;22.58;;
27225;SDS011;14732;51.074;3.788;2024-03-06T09:45:54;46.00;;;21.38;;
27225;SDS011;14732;51.074;3.788;2024-03-06T09:48:21;45.25;;;22.30;;
27225;SDS011;14732;51.074;3.788;2024-03-06T09:50:48;41.88;;;21.88;;
27225;SDS011;14732;51.074;3.788;2024-03-06T09:53:15;44.35;;;21.67;;
27225;SDS011;14732;51.074;3.788;2024-03-06T09:55:43;41.55;;;20.63;;
27225;SDS011;14732;51.074;3.788;2024-03-06T09:58:11;42.08;;;21.20;;
27225;SDS011;14732;51.074;3.788;2024-03-06T10:00:37;47.22;;;21.48;;
27225;SDS011;14732;51.074;3.788;2024-03-06T10:03:03;33.33;;;18.13;;
27225;SDS011;14732;51.074;3.788;2024-03-06T10:05:33;42.17;;;19.27;;
27225;SDS011;14732;51.074;3.788;2024-03-06T10:08:03;35.97;;;18.58;;
27225;SDS011;14732;51.074;3.788;2024-03-06T10:10:30;39.58;;;19.50;;
27225;SDS011;14732;51.074;3.788;2024-03-06T10:12:56;47.28;;;19.65;;
27225;SDS011;14732;51.074;3.788;2024-03-06T10:15:25;35.75;;;18.73;;
27225;SDS011;14732;51.074;3.788;2024-03-06T10:18:09;38.67;;;19.38;;
27225;SDS011;14732;51.074;3.788;2024-03-06T10:20:37;37.53;;;19.38;;
27225;SDS011;14732;51.074;3.788;2024-03-06T10:23:02;37.38;;;19.58;;
27225;SDS011;14732;51.074;3.788;2024-03-06T10:25:28;34.47;;;18.25;;
27225;SDS011;14732;51.074;3.788;2024-03-06T10:28:10;37.67;;;18.08;;
27225;SDS011;14732;51.074;3.788;2024-03-06T10:30:37;33.88;;;18.33;;
27225;SDS011;14732;51.074;3.788;2024-03-06T10:33:07;35.15;;;17.45;;
27225;SDS011;14732;51.074;3.788;2024-03-06T10:35:33;34.13;;;17.48;;
27225;SDS011;14732;51.074;3.788;2024-03-06T10:38:03;37.33;;;18.80;;
27225;SDS011;14732;51.074;3.788;2024-03-06T10:40:34;34.40;;;17.45;;
27225;SDS011;14732;51.074;3.788;2024-03-06T10:43:02;34.45;;;17.15;;
27225;SDS011;14732;51.074;3.788;2024-03-06T10:45:50;31.00;;;16.77;;
27225;SDS011;14732;51.074;3.788;2024-03-06T10:48:17;29.85;;;16.38;;
27225;SDS011;14732;51.074;3.788;2024-03-06T10:50:44;30.80;;;17.10;;
27225;SDS011;14732;51.074;3.788;2024-03-06T10:53:11;32.53;;;16.23;;
27225;SDS011;14732;51.074;3.788;2024-03-06T10:55:40;30.05;;;16.27;;
27225;SDS011;14732;51.074;3.788;2024-03-06T10:58:09;31.40;;;16.30;;
27225;SDS011;14732;51.074;3.788;2024-03-06T11:00:39;29.52;;;15.20;;
27225;SDS011;14732;51.074;3.788;2024-03-06T11:03:06;27.27;;;15.27;;
27225;SDS011;14732;51.074;3.788;2024-03-06T11:05:36;25.15;;;14.75;;
27225;SDS011;14732;51.074;3.788;2024-03-06T11:08:12;28.58;;;15.77;;
27225;SDS011;14732;51.074;3.788;2024-03-06T11:10:39;31.02;;;16.17;;
27225;SDS011;14732;51.074;3.788;2024-03-06T11:13:22;26.45;;;15.50;;
27225;SDS011;14732;51.074;3.788;2024-03-06T11:15:49;25.58;;;14.57;;
27225;SDS011;14732;51.074;3.788;2024-03-06T11:27:00;22.77;;;13.30;;
27225;SDS011;14732;51.074;3.788;2024-03-06T11:29:29;27.05;;;12.88;;
27225;SDS011;14732;51.074;3.788;2024-03-06T11:32:14;27.05;;;13.55;;
27225;SDS011;14732;51.074;3.788;2024-03-06T11:34:41;21.65;;;12.95;;
27225;SDS011;14732;51.074;3.788;2024-03-06T11:37:07;22.73;;;12.38;;
27225;SDS011;14732;51.074;3.788;2024-03-06T11:39:38;19.90;;;12.07;;
27225;SDS011;14732;51.074;3.788;2024-03-06T11:42:06;21.20;;;11.73;;
27225;SDS011;14732;51.074;3.788;2024-03-06T11:44:33;22.88;;;11.77;;
27225;SDS011;14732;51.074;3.788;2024-03-06T11:47:03;18.10;;;11.00;;
27225;SDS011;14732;51.074;3.788;2024-03-06T11:49:31;15.82;;;10.35;;
27225;SDS011;14732;51.074;3.788;2024-03-06T11:52:02;20.02;;;11.40;;
27225;SDS011;14732;51.074;3.788;2024-03-06T11:54:33;17.80;;;10.90;;
27225;SDS011;14732;51.074;3.788;2024-03-06T11:56:59;18.02;;;9.48;;
27225;SDS011;14732;51.074;3.788;2024-03-06T11:59:28;17.08;;;9.95;;
27225;SDS011;14732;51.074;3.788;2024-03-06T12:01:55;17.00;;;9.80;;
27225;SDS011;14732;51.074;3.788;2024-03-06T12:04:22;16.58;;;10.02;;
27225;SDS011;14732;51.074;3.788;2024-03-06T12:06:49;16.73;;;9.68;;
27225;SDS011;14732;51.074;3.788;2024-03-06T12:09:14;16.85;;;9.65;;
27225;SDS011;14732;51.074;3.788;2024-03-06T12:11:41;16.15;;;9.35;;
27225;SDS011;14732;51.074;3.788;2024-03-06T12:14:16;14.70;;;9.02;;
27225;SDS011;14732;51.074;3.788;2024-03-06T12:16:43;13.35;;;8.52;;
27225;SDS011;14732;51.074;3.788;2024-03-06T12:19:19;14.25;;;8.65;;
27225;SDS011;14732;51.074;3.788;2024-03-06T12:21:46;12.15;;;6.85;;
27225;SDS011;14732;51.074;3.788;2024-03-06T12:24:13;12.25;;;7.10;;
27225;SDS011;14732;51.074;3.788;2024-03-06T12:26:43;11.13;;;7.00;;
27225;SDS011;14732;51.074;3.788;2024-03-06T12:29:10;10.07;;;7.18;;
27225;SDS011;14732;51.074;3.788;2024-03-06T12:31:37;11.75;;;7.28;;
27225;SDS011;14732;51.074;3.788;2024-03-06T12:34:06;12.32;;;7.68;;
27225;SDS011;14732;51.074;3.788;2024-03-06T12:36:32;11.32;;;7.32;;
27225;SDS011;14732;51.074;3.788;2024-03-06T12:38:59;11.48;;;7.30;;
27225;SDS011;14732;51.074;3.788;2024-03-06T12:41:26;12.40;;;6.75;;
27225;SDS011;14732;51.074;3.788;2024-03-06T12:43:53;9.25;;;6.15;;
27225;SDS011;14732;51.074;3.788;2024-03-06T12:46:20;15.65;;;8.90;;
27225;SDS011;14732;51.074;3.788;2024-03-06T12:48:46;11.68;;;6.80;;
27225;SDS011;14732;51.074;3.788;2024-03-06T12:51:12;8.40;;;5.32;;
27225;SDS011;14732;51.074;3.788;2024-03-06T12:53:37;12.15;;;7.00;;
27225;SDS011;14732;51.074;3.788;2024-03-06T12:56:03;15.45;;;8.98;;
27225;SDS011;14732;51.074;3.788;2024-03-06T12:58:29;14.93;;;8.77;;
27225;SDS011;14732;51.074;3.788;2024-03-06T13:01:00;13.52;;;8.77;;
27225;SDS011;14732;51.074;3.788;2024-03-06T13:03:26;16.67;;;9.18;;
27225;SDS011;14732;51.074;3.788;2024-03-06T13:05:52;13.75;;;8.90;;
27225;SDS011;14732;51.074;3.788;2024-03-06T13:08:18;12.55;;;8.50;;
27225;SDS011;14732;51.074;3.788;2024-03-06T13:10:44;13.60;;;9.00;;
27225;SDS011;14732;51.074;3.788;2024-03-06T13:13:10;14.57;;;8.18;;
27225;SDS011;14732;51.074;3.788;2024-03-06T13:15:36;15.88;;;8.18;;
27225;SDS011;14732;51.074;3.788;2024-03-06T13:18:02;11.93;;;7.53;;
27225;SDS011;14732;51.074;3.788;2024-03-06T13:20:29;11.43;;;6.13;;
27225;SDS011;14732;51.074;3.788;2024-03-06T13:22:58;9.00;;;5.53;;
27225;SDS011;14732;51.074;3.788;2024-03-06T13:25:24;8.65;;;5.00;;
27225;SDS011;14732;51.074;3.788;2024-03-06T13:27:50;6.93;;;4.75;;
27225;SDS011;14732;51.074;3.788;2024-03-06T13:30:19;6.10;;;4.65;;
27225;SDS011;14732;51.074;3.788;2024-03-06T13:32:45;7.55;;;4.75;;
27225;SDS011;14732;51.074;3.788;2024-03-06T13:35:13;6.38;;;4.50;;
27225;SDS011;14732;51.074;3.788;2024-03-06T13:37:40;6.50;;;4.07;;
27225;SDS011;14732;51.074;3.788;2024-03-06T13:40:09;4.80;;;3.80;;
27225;SDS011;14732;51.074;3.788;2024-03-06T13:42:36;5.63;;;4.35;;
27225;SDS011;14732;51.074;3.788;2024-03-06T13:45:02;6.28;;;4.53;;
27225;SDS011;14732;51.074;3.788;2024-03-06T13:47:29;7.90;;;3.95;;
27225;SDS011;14732;51.074;3.788;2024-03-06T13:49:56;5.38;;;3.80;;
27225;SDS011;14732;51.074;3.788;2024-03-06T13:52:22;8.88;;;4.25;;
27225;SDS011;14732;51.074;3.788;2024-03-06T13:54:48;7.53;;;4.50;;
27225;SDS011;14732;51.074;3.788;2024-03-06T13:57:15;5.63;;;4.03;;
27225;SDS011;14732;51.074;3.788;2024-03-06T13:59:41;6.82;;;4.30;;
27225;SDS011;14732;51.074;3.788;2024-03-06T14:02:07;5.18;;;4.40;;
27225;SDS011;14732;51.074;3.788;2024-03-06T14:04:33;7.30;;;5.00;;
27225;SDS011;14732;51.074;3.788;2024-03-06T14:06:59;7.45;;;5.07;;
27225;SDS011;14732;51.074;3.788;2024-03-06T14:09:25;10.30;;;5.65;;
27225;SDS011;14732;51.074;3.788;2024-03-06T14:11:52;8.88;;;5.63;;
27225;SDS011;14732;51.074;3.788;2024-03-06T14:14:18;7.10;;;5.70;;
27225;SDS011;14732;51.074;3.788;2024-03-06T14:16:44;7.50;;;5.45;;
27225;SDS011;14732;51.074;3.788;2024-03-06T14:19:10;5.95;;;5.03;;
27225;SDS011;14732;51.074;3.788;2024-03-06T14:21:36;9.70;;;5.65;;
27225;SDS011;14732;51.074;3.788;2024-03-06T14:24:03;9.05;;;5.32;;
27225;SDS011;14732;51.074;3.788;2024-03-06T14:26:30;13.82;;;5.32;;
27225;SDS011;14732;51.074;3.788;2024-03-06T14:28:57;8.82;;;5.93;;
27225;SDS011;14732;51.074;3.788;2024-03-06T14:33:53;8.07;;;4.80;;
27225;SDS011;14732;51.074;3.788;2024-03-06T14:36:18;7.28;;;4.78;;
27225;SDS011;14732;51.074;3.788;2024-03-06T14:38:46;6.80;;;3.60;;
27225;SDS011;14732;51.074;3.788;2024-03-06T14:41:12;5.85;;;3.30;;